createdAt,value
2022-11-05T00:02:27.436Z,7.60
2022-11-05T00:05:09.224Z,8.67
2022-11-05T00:07:56.276Z,9.93
2022-11-05T00:10:25.941Z,11.13
2022-11-05T00:13:12.410Z,11.53
2022-11-05T00:15:59.273Z,13.20
2022-11-05T00:18:27.268Z,10.83
2022-11-05T00:20:55.188Z,11.20
2022-11-05T00:23:40.611Z,10.50
2022-11-05T00:26:11.432Z,10.87
2022-11-05T00:28:40.783Z,9.87
2022-11-05T00:31:11.621Z,10.30
2022-11-05T00:33:39.948Z,10.33
2022-11-05T00:36:09.332Z,10.73
2022-11-05T00:38:37.632Z,10.30
2022-11-05T00:41:05.821Z,10.03
2022-11-05T00:43:51.097Z,9.93
2022-11-05T00:46:20.376Z,11.00
2022-11-05T00:49:05.680Z,11.03
2022-11-05T00:51:33.564Z,9.80
2022-11-05T00:54:01.474Z,10.27
2022-11-05T00:56:29.356Z,10.27
2022-11-05T00:58:57.755Z,13.13
2022-11-05T01:01:27.090Z,12.10
2022-11-05T01:03:55.190Z,11.97
2022-11-05T01:06:23.089Z,12.67
2022-11-05T01:08:50.981Z,13.60
2022-11-05T01:11:34.058Z,12.97
2022-11-05T01:14:04.022Z,13.63
2022-11-05T01:16:33.588Z,13.97
2022-11-05T01:19:02.339Z,15.13
2022-11-05T01:21:30.260Z,13.70
2022-11-05T01:23:58.209Z,15.50
2022-11-05T01:26:26.211Z,13.27
2022-11-05T01:28:54.723Z,9.80
2022-11-05T01:31:22.737Z,10.87
2022-11-05T01:33:52.264Z,9.80
2022-11-05T01:36:20.385Z,8.57
2022-11-05T01:38:48.294Z,9.00
2022-11-05T01:41:16.190Z,9.47
2022-11-05T01:43:48.960Z,8.73
2022-11-05T01:46:18.925Z,9.77
2022-11-05T01:48:47.244Z,9.13
2022-11-05T01:51:19.011Z,10.60
2022-11-05T01:53:48.903Z,10.97
2022-11-05T01:56:19.704Z,11.17
2022-11-05T01:58:50.960Z,12.47
2022-11-05T02:01:19.067Z,11.10
2022-11-05T02:03:49.847Z,9.07
2022-11-05T02:06:19.714Z,11.20
2022-11-05T02:08:54.683Z,9.37
2022-11-05T02:11:22.980Z,10.30
2022-11-05T02:13:51.290Z,11.50
2022-11-05T02:16:27.003Z,11.00
2022-11-05T02:18:59.565Z,10.00
2022-11-05T02:22:03.344Z,9.00
2022-11-05T02:25:07.137Z,9.33
2022-11-05T02:27:51.340Z,9.97
2022-11-05T02:30:37.287Z,9.63
2022-11-05T02:33:12.207Z,13.33
2022-11-05T02:36:07.983Z,9.40
2022-11-05T02:38:41.167Z,8.87
2022-11-05T02:41:13.814Z,9.90
2022-11-05T02:43:49.208Z,11.73
2022-11-05T02:46:26.864Z,10.70
2022-11-05T02:48:59.581Z,11.73
2022-11-05T02:51:34.265Z,12.20
2022-11-05T02:54:06.799Z,9.07
2022-11-05T02:56:37.729Z,9.50
2022-11-05T02:59:05.735Z,8.77
2022-11-05T03:01:35.942Z,9.40
2022-11-05T03:04:06.155Z,17.53
2022-11-05T03:06:43.179Z,11.17
2022-11-05T03:09:43.055Z,21.47
2022-11-05T03:12:21.419Z,10.50
2022-11-05T03:14:54.960Z,11.87
2022-11-05T03:17:31.727Z,12.23
2022-11-05T03:20:04.064Z,10.43
2022-11-05T03:22:36.043Z,8.43
2022-11-05T03:25:09.264Z,11.97
2022-11-05T03:27:42.195Z,9.00
2022-11-05T03:30:12.822Z,9.37
2022-11-05T03:32:46.081Z,8.40
2022-11-05T03:35:16.712Z,8.93
2022-11-05T03:37:45.213Z,10.73
2022-11-05T03:40:13.905Z,9.40
2022-11-05T03:42:44.728Z,7.90
2022-11-05T03:45:16.901Z,11.80
2022-11-05T03:47:48.076Z,14.43
2022-11-05T03:50:21.640Z,11.37
2022-11-05T03:52:53.865Z,9.30
2022-11-05T03:55:25.320Z,9.53
2022-11-05T03:57:55.097Z,9.83
2022-11-05T04:00:23.463Z,12.27
2022-11-05T04:02:52.977Z,17.90
2022-11-05T04:05:21.012Z,12.57
2022-11-05T04:08:11.377Z,10.60
2022-11-05T04:11:01.491Z,12.50
2022-11-05T04:13:29.948Z,13.27
2022-11-05T04:16:15.996Z,9.77
2022-11-05T04:18:45.276Z,8.67
2022-11-05T04:21:30.390Z,10.30
2022-11-05T04:24:10.636Z,14.80
2022-11-05T04:26:39.718Z,9.40
2022-11-05T04:29:25.379Z,9.97
2022-11-05T04:31:53.579Z,12.10
2022-11-05T04:34:23.095Z,14.53
2022-11-05T04:36:51.059Z,12.80
2022-11-05T04:39:19.266Z,10.83
2022-11-05T04:41:48.749Z,9.10
2022-11-05T04:44:16.872Z,10.50
2022-11-05T04:46:44.892Z,13.37
2022-11-05T04:49:12.780Z,8.77
2022-11-05T04:51:42.031Z,10.87
2022-11-05T04:54:09.949Z,11.03
2022-11-05T04:56:37.873Z,17.13
2022-11-05T04:59:05.752Z,11.97
2022-11-05T05:01:33.889Z,12.60
2022-11-05T05:04:01.993Z,12.43
2022-11-05T05:06:29.951Z,10.80
2022-11-05T05:09:00.401Z,9.93
2022-11-05T05:11:28.305Z,10.40
2022-11-05T05:13:56.231Z,14.30
2022-11-05T05:16:25.450Z,9.00
2022-11-05T05:18:54.118Z,14.80
2022-11-05T05:21:41.007Z,10.13
2022-11-05T05:24:12.337Z,12.70
2022-11-05T05:26:42.159Z,13.23
2022-11-05T05:29:10.608Z,12.20
2022-11-05T05:31:38.694Z,13.00
2022-11-05T05:34:08.035Z,12.37
2022-11-05T05:36:35.913Z,16.80
2022-11-05T05:39:06.245Z,14.10
2022-11-05T05:41:35.627Z,12.00
2022-11-05T05:44:03.583Z,16.37
2022-11-05T05:46:31.479Z,19.93
2022-11-05T05:48:59.359Z,12.67
2022-11-05T05:51:27.272Z,15.20
2022-11-05T05:53:55.795Z,15.80
2022-11-05T05:56:23.754Z,20.83
2022-11-05T05:58:53.333Z,15.47
2022-11-05T06:01:21.318Z,18.53
2022-11-05T06:03:49.925Z,23.33
2022-11-05T06:06:20.979Z,28.17
2022-11-05T06:08:49.405Z,38.93
2022-11-05T06:11:17.469Z,29.97
2022-11-05T06:13:45.418Z,22.47
2022-11-05T06:16:14.752Z,22.70
2022-11-05T06:18:42.753Z,20.13
2022-11-05T06:21:12.179Z,20.83
2022-11-05T06:23:41.560Z,23.17
2022-11-05T06:26:11.164Z,24.43
2022-11-05T06:28:39.168Z,18.43
2022-11-05T06:31:07.242Z,26.60
2022-11-05T06:33:36.499Z,15.73
2022-11-05T06:36:05.347Z,18.40
2022-11-05T06:38:34.691Z,19.33
2022-11-05T06:41:09.898Z,25.80
2022-11-05T06:43:38.673Z,27.60
2022-11-05T06:46:06.564Z,26.30
2022-11-05T06:48:36.031Z,12.27
2022-11-05T06:51:04.011Z,23.90
2022-11-05T06:53:32.306Z,23.13
2022-11-05T06:56:03.279Z,19.23
2022-11-05T06:58:32.108Z,25.67
2022-11-05T07:01:03.418Z,19.63
2022-11-05T07:03:31.565Z,34.07
2022-11-05T07:06:01.647Z,25.43
2022-11-05T07:08:32.322Z,25.23
2022-11-05T07:11:00.390Z,29.30
2022-11-05T07:13:28.642Z,32.40
2022-11-05T07:15:56.701Z,36.00
2022-11-05T07:18:24.631Z,34.60
2022-11-05T07:20:52.526Z,24.93
2022-11-05T07:23:21.781Z,30.30
2022-11-05T07:25:49.619Z,31.87
2022-11-05T07:28:17.498Z,29.93
2022-11-05T07:30:45.382Z,22.70
2022-11-05T07:33:13.771Z,24.73
2022-11-05T07:35:41.906Z,26.27
2022-11-05T07:38:09.889Z,25.10
2022-11-05T07:40:39.350Z,18.70
2022-11-05T07:43:07.231Z,20.53
2022-11-05T07:45:35.093Z,22.60
2022-11-05T07:48:04.998Z,15.53
2022-11-05T07:50:34.955Z,11.27
2022-11-05T07:53:03.808Z,14.33
2022-11-05T07:55:31.984Z,11.17
2022-11-05T07:58:01.285Z,14.23
2022-11-05T08:00:29.660Z,16.50
2022-11-05T08:03:03.997Z,13.67
2022-11-05T08:05:37.648Z,19.70
2022-11-05T08:08:06.217Z,16.50
2022-11-05T08:10:35.010Z,18.97
2022-11-05T08:13:05.508Z,16.80
2022-11-05T08:15:34.051Z,15.17
2022-11-05T08:18:03.227Z,20.97
2022-11-05T08:20:31.659Z,17.90
2022-11-05T08:22:59.531Z,14.83
2022-11-05T08:25:27.641Z,18.60
2022-11-05T08:27:59.262Z,13.83
2022-11-05T08:30:29.106Z,18.33
2022-11-05T08:32:58.271Z,20.40
2022-11-05T08:35:26.262Z,23.50
2022-11-05T08:37:57.828Z,17.47
2022-11-05T08:40:25.913Z,16.20
2022-11-05T08:42:53.846Z,20.00
2022-11-05T08:45:21.687Z,19.70
2022-11-05T08:47:50.932Z,16.13
2022-11-05T08:50:18.964Z,16.43
2022-11-05T08:52:46.852Z,26.27
2022-11-05T08:55:18.826Z,28.73
2022-11-05T08:57:47.155Z,17.67
2022-11-05T09:00:16.181Z,13.30
2022-11-05T09:02:44.329Z,12.47
2022-11-05T09:05:13.612Z,14.50
2022-11-05T09:07:41.507Z,26.27
2022-11-05T09:10:10.474Z,14.83
2022-11-05T09:12:38.322Z,15.90
2022-11-05T09:15:06.768Z,12.93
2022-11-05T09:17:34.633Z,10.37
2022-11-05T09:20:07.066Z,11.30
2022-11-05T09:22:42.076Z,17.63
2022-11-05T09:25:11.511Z,40.13
2022-11-05T09:27:39.391Z,15.50
2022-11-05T09:30:08.409Z,11.70
2022-11-05T09:32:36.265Z,7.63
2022-11-05T09:35:04.415Z,8.03
2022-11-05T09:37:32.313Z,4.63
2022-11-05T09:40:01.556Z,3.80
2022-11-05T09:42:33.015Z,3.73
2022-11-05T09:45:03.257Z,5.60
2022-11-05T09:47:35.305Z,7.13
2022-11-05T09:50:07.550Z,4.87
2022-11-05T09:52:35.883Z,5.20
2022-11-05T09:55:08.312Z,3.70
2022-11-05T09:57:42.232Z,10.33
2022-11-05T10:00:16.567Z,9.50
2022-11-05T10:02:50.232Z,5.67
2022-11-05T10:05:18.776Z,2.40
2022-11-05T10:07:49.126Z,2.17
2022-11-05T10:10:28.038Z,3.53
2022-11-05T10:12:58.386Z,5.80
2022-11-05T10:15:29.251Z,2.63
2022-11-05T10:17:59.347Z,3.40
2022-11-05T10:20:33.353Z,3.47
2022-11-05T10:23:03.113Z,1.80
2022-11-05T10:25:34.895Z,6.40
2022-11-05T10:28:05.344Z,3.60
2022-11-05T10:30:33.499Z,2.93
2022-11-05T10:33:04.741Z,2.83
2022-11-05T10:35:34.656Z,2.40
2022-11-05T10:38:03.190Z,2.40
2022-11-05T10:40:38.781Z,2.87
2022-11-05T10:43:09.568Z,2.50
2022-11-05T10:45:49.071Z,4.87
2022-11-05T10:48:40.702Z,2.97
2022-11-05T10:51:11.931Z,3.37
2022-11-05T10:53:40.070Z,3.63
2022-11-05T10:59:05.641Z,3.13
2022-11-05T11:01:37.827Z,6.10
2022-11-05T11:04:10.534Z,2.83
2022-11-05T11:06:39.195Z,3.40
2022-11-05T11:09:08.264Z,3.93
2022-11-05T11:11:37.746Z,3.60
2022-11-05T11:14:22.082Z,3.73
2022-11-05T11:16:57.149Z,3.30
2022-11-05T11:19:29.868Z,3.33
2022-11-05T11:22:23.494Z,16.17
2022-11-05T11:24:53.991Z,3.60
2022-11-05T11:27:26.792Z,4.23
2022-11-05T11:30:00.637Z,3.40
2022-11-05T11:32:33.626Z,3.27
2022-11-05T11:35:01.663Z,12.80
2022-11-05T11:37:31.550Z,4.60
2022-11-05T11:40:03.679Z,4.20
2022-11-05T11:42:33.075Z,3.60
2022-11-05T11:45:06.003Z,3.50
2022-11-05T11:47:34.278Z,3.73
2022-11-05T11:50:02.952Z,3.47
2022-11-05T11:52:32.601Z,3.77
2022-11-05T11:55:21.716Z,2.93
2022-11-05T11:57:51.597Z,3.33
2022-11-05T12:00:22.122Z,3.30
2022-11-05T12:03:24.859Z,3.90
2022-11-05T12:05:56.030Z,3.13
2022-11-05T12:08:45.552Z,5.20
2022-11-05T12:11:19.265Z,3.13
2022-11-05T12:14:00.141Z,3.00
2022-11-05T12:16:41.817Z,2.90
2022-11-05T12:19:18.786Z,2.23
2022-11-05T12:21:53.643Z,3.50
2022-11-05T12:24:35.960Z,4.93
2022-11-05T12:27:12.794Z,3.10
2022-11-05T12:29:50.913Z,3.33
2022-11-05T12:32:36.305Z,2.43
2022-11-05T12:35:10.829Z,2.30
2022-11-05T12:37:43.013Z,3.93
2022-11-05T12:40:24.813Z,4.00
2022-11-05T12:43:10.526Z,3.03
2022-11-05T12:45:45.468Z,3.73
2022-11-05T12:48:32.792Z,2.90
2022-11-05T12:51:11.429Z,3.10
2022-11-05T12:53:52.986Z,2.53
2022-11-05T12:56:25.665Z,2.03
2022-11-05T12:58:58.287Z,2.90
2022-11-05T13:01:33.110Z,2.30
2022-11-05T13:04:06.678Z,2.20
2022-11-05T13:06:39.664Z,2.27
2022-11-05T13:09:13.913Z,1.83
2022-11-05T13:11:45.911Z,2.10
2022-11-05T13:14:16.797Z,2.73
2022-11-05T13:16:47.370Z,2.43
2022-11-05T13:19:20.319Z,11.50
2022-11-05T13:21:51.909Z,2.97
2022-11-05T13:24:22.350Z,7.27
2022-11-05T13:26:54.029Z,3.03
2022-11-05T13:29:24.631Z,2.90
2022-11-05T13:31:55.638Z,3.37
2022-11-05T13:34:24.942Z,2.73
2022-11-05T13:37:14.075Z,2.77
2022-11-05T13:39:47.913Z,2.63
2022-11-05T13:42:49.375Z,2.80
2022-11-05T13:45:50.812Z,3.10
2022-11-05T13:48:46.130Z,3.70
2022-11-05T13:51:38.602Z,3.27
2022-11-05T13:54:49.108Z,2.67
2022-11-05T13:58:01.799Z,13.43
2022-11-05T14:00:31.634Z,6.33
2022-11-05T14:03:03.355Z,3.43
2022-11-05T14:05:34.007Z,3.63
2022-11-05T14:08:10.451Z,2.30
2022-11-05T14:10:40.894Z,2.90
2022-11-05T14:13:21.666Z,2.50
2022-11-05T14:15:57.985Z,2.70
2022-11-05T14:18:41.689Z,2.83
2022-11-05T14:21:31.263Z,3.10
2022-11-05T14:24:01.451Z,3.43
2022-11-05T14:26:30.243Z,5.40
2022-11-05T14:29:23.997Z,2.90
2022-11-05T14:32:09.835Z,3.30
2022-11-05T14:34:54.369Z,4.77
2022-11-05T14:37:27.688Z,2.67
2022-11-05T14:39:57.422Z,2.77
2022-11-05T14:42:30.050Z,3.70
2022-11-05T14:45:01.551Z,3.40
2022-11-05T14:47:32.294Z,4.23
2022-11-05T14:50:04.558Z,4.53
2022-11-05T14:52:33.152Z,3.83
2022-11-05T14:55:02.381Z,3.80
2022-11-05T14:58:21.732Z,4.37
2022-11-05T15:00:50.094Z,5.40
2022-11-05T15:03:39.743Z,5.23
2022-11-05T15:06:28.911Z,3.77
2022-11-05T15:09:05.138Z,3.10
2022-11-05T15:11:38.566Z,3.53
2022-11-05T15:14:08.831Z,2.93
2022-11-05T15:16:39.588Z,3.77
2022-11-05T15:19:17.953Z,2.73
2022-11-05T15:21:46.546Z,3.03
2022-11-05T15:24:16.347Z,3.30
2022-11-05T15:26:48.633Z,3.30
2022-11-05T15:29:18.986Z,3.50
2022-11-05T15:31:47.891Z,3.03
2022-11-05T15:34:22.181Z,4.13
2022-11-05T15:36:55.819Z,3.73
2022-11-05T15:39:33.803Z,3.47
2022-11-05T15:42:06.014Z,3.80
2022-11-05T15:44:35.787Z,3.27
2022-11-05T15:47:15.089Z,2.80
2022-11-05T15:49:44.101Z,3.03
2022-11-05T15:52:13.646Z,7.23
2022-11-05T15:54:41.809Z,3.63
2022-11-05T15:57:22.674Z,4.17
2022-11-05T15:59:50.742Z,4.37
2022-11-05T16:02:26.107Z,3.80
2022-11-05T16:04:54.223Z,3.87
2022-11-05T16:07:22.518Z,4.33
2022-11-05T16:09:55.980Z,4.00
2022-11-05T16:12:32.997Z,3.00
2022-11-05T16:15:04.877Z,2.70
2022-11-05T16:17:34.599Z,2.90
2022-11-05T16:20:20.291Z,4.80
2022-11-05T16:22:49.657Z,2.70
2022-11-05T16:25:25.557Z,3.43
2022-11-05T16:27:54.843Z,17.93
2022-11-05T16:30:22.863Z,16.10
2022-11-05T16:32:50.857Z,7.47
2022-11-05T16:35:20.755Z,4.30
2022-11-05T16:37:52.083Z,5.00
2022-11-05T16:40:21.893Z,3.40
2022-11-05T16:42:51.520Z,8.43
2022-11-05T16:45:22.291Z,12.70
2022-11-05T16:47:50.684Z,10.63
2022-11-05T16:50:21.737Z,10.93
2022-11-05T16:52:49.964Z,7.70
2022-11-05T16:55:19.037Z,6.33
2022-11-05T16:57:49.205Z,5.47
2022-11-05T17:00:19.087Z,5.93
2022-11-05T17:02:48.949Z,5.37
2022-11-05T17:05:23.266Z,7.60
2022-11-05T17:07:51.686Z,9.23
2022-11-05T17:10:20.379Z,9.50
2022-11-05T17:12:48.765Z,5.30
2022-11-05T17:15:21.794Z,6.33
2022-11-05T17:17:51.611Z,6.50
2022-11-05T17:20:40.892Z,5.23
2022-11-05T17:23:09.936Z,6.27
2022-11-05T17:25:38.524Z,7.10
2022-11-05T17:28:06.648Z,12.00
2022-11-05T17:30:34.618Z,17.13
2022-11-05T17:33:04.102Z,21.77
2022-11-05T17:35:32.145Z,16.93
2022-11-05T17:38:00.055Z,14.07
2022-11-05T17:40:28.876Z,12.03
2022-11-05T17:42:56.858Z,14.40
2022-11-05T17:45:24.722Z,17.20
2022-11-05T17:47:52.647Z,6.10
2022-11-05T17:50:22.348Z,10.20
2022-11-05T17:52:50.331Z,8.03
2022-11-05T17:55:18.227Z,7.90
2022-11-05T17:57:47.333Z,7.00
2022-11-05T18:00:17.183Z,9.83
2022-11-05T18:02:46.091Z,10.50
2022-11-05T18:05:14.437Z,7.23
2022-11-05T18:07:44.036Z,8.40
2022-11-05T18:10:12.443Z,8.97
2022-11-05T18:12:40.682Z,11.20
2022-11-05T18:15:09.666Z,9.90
2022-11-05T18:17:37.541Z,14.93
2022-11-05T18:20:11.674Z,17.70
2022-11-05T18:22:43.869Z,14.40
2022-11-05T18:25:13.632Z,17.67
2022-11-05T18:27:42.122Z,12.83
2022-11-05T18:30:13.997Z,14.57
2022-11-05T18:32:42.086Z,10.30
2022-11-05T18:35:10.508Z,10.50
2022-11-05T18:37:38.600Z,11.17
2022-11-05T18:40:09.079Z,10.90
2022-11-05T18:42:37.187Z,17.43
2022-11-05T18:45:06.143Z,13.20
2022-11-05T18:47:34.194Z,15.27
2022-11-05T18:50:02.236Z,13.40
2022-11-05T18:52:31.851Z,9.20
2022-11-05T18:54:59.967Z,11.63
2022-11-05T18:57:29.501Z,21.10
2022-11-05T18:59:57.407Z,12.37
2022-11-05T19:02:25.431Z,9.67
2022-11-05T19:05:26.907Z,12.30
2022-11-05T19:07:41.527Z,16.60
2022-11-05T19:10:09.861Z,15.83
2022-11-05T19:12:39.103Z,13.60
2022-11-05T19:15:08.131Z,10.60
2022-11-05T19:17:36.522Z,11.77
2022-11-05T19:20:05.818Z,18.37
2022-11-05T19:22:33.975Z,9.53
2022-11-05T19:25:01.957Z,10.00
2022-11-05T19:27:29.855Z,11.27
2022-11-05T19:29:59.160Z,12.47
2022-11-05T19:32:27.718Z,11.40
2022-11-05T19:34:55.624Z,11.60
2022-11-05T19:37:23.536Z,12.43
2022-11-05T19:39:52.121Z,11.40
2022-11-05T19:42:20.037Z,13.57
2022-11-05T19:44:47.904Z,11.93
2022-11-05T19:47:17.191Z,15.87
2022-11-05T19:49:45.062Z,12.30
2022-11-05T19:52:12.973Z,11.77
2022-11-05T19:54:40.891Z,10.60
2022-11-05T19:57:08.808Z,10.67
2022-11-05T19:59:36.771Z,11.43
2022-11-05T20:02:05.255Z,9.30
2022-11-05T20:04:34.771Z,8.20
2022-11-05T20:07:02.667Z,7.40
2022-11-05T20:09:30.923Z,8.97
2022-11-05T20:11:58.809Z,6.33
2022-11-05T20:14:27.546Z,6.87
2022-11-05T20:16:55.551Z,7.43
2022-11-05T20:19:24.293Z,7.23
2022-11-05T20:21:53.682Z,8.40
2022-11-05T20:24:25.331Z,8.40
2022-11-05T20:26:53.991Z,7.13
2022-11-05T20:29:22.213Z,7.90
2022-11-05T20:31:50.684Z,9.37
2022-11-05T20:34:18.559Z,9.97
2022-11-05T20:36:46.509Z,9.90
2022-11-05T20:39:15.961Z,9.03
2022-11-05T20:41:43.891Z,8.40
2022-11-05T20:44:11.925Z,8.33
2022-11-05T20:46:39.848Z,8.43
2022-11-05T20:49:07.739Z,9.40
2022-11-05T20:51:35.667Z,13.93
2022-11-05T20:54:03.861Z,10.50
2022-11-05T20:56:35.523Z,9.40
2022-11-05T20:59:03.929Z,13.20
2022-11-05T21:01:34.045Z,17.03
2022-11-05T21:04:02.901Z,11.00
2022-11-05T21:06:31.240Z,11.90
2022-11-05T21:08:59.317Z,16.37
2022-11-05T21:11:27.217Z,13.70
2022-11-05T21:13:56.531Z,13.30
2022-11-05T21:16:24.479Z,13.37
2022-11-05T21:18:52.440Z,10.20
2022-11-05T21:21:21.609Z,13.57
2022-11-05T21:23:49.678Z,10.90
2022-11-05T21:26:18.648Z,11.13
2022-11-05T21:28:46.618Z,13.17
2022-11-05T21:31:15.859Z,16.93
2022-11-05T21:33:43.727Z,13.30
2022-11-05T21:36:13.520Z,13.30
2022-11-05T21:38:42.035Z,12.40
2022-11-05T21:41:11.335Z,13.20
2022-11-05T21:43:39.612Z,13.40
2022-11-05T21:46:10.769Z,14.13
2022-11-05T21:48:40.190Z,19.93
2022-11-05T21:51:25.439Z,13.17
2022-11-05T21:54:10.607Z,11.83
2022-11-05T21:56:56.251Z,11.17
2022-11-05T21:59:42.652Z,9.80
2022-11-05T22:02:12.124Z,9.87
2022-11-05T22:04:42.663Z,11.77
2022-11-05T22:07:12.072Z,13.63
2022-11-05T22:09:40.109Z,11.10
2022-11-05T22:12:08.386Z,11.87
2022-11-05T22:14:36.311Z,16.90
2022-11-05T22:17:04.642Z,12.13
2022-11-05T22:19:32.826Z,12.93
2022-11-05T22:22:02.339Z,14.67
2022-11-05T22:24:31.929Z,16.40
2022-11-05T22:27:00.143Z,12.10
2022-11-05T22:29:28.551Z,12.00
2022-11-05T22:31:56.859Z,17.30
2022-11-05T22:34:24.859Z,14.33
2022-11-05T22:36:52.745Z,11.80
2022-11-05T22:39:22.445Z,10.80
2022-11-05T22:41:50.561Z,9.30
2022-11-05T22:44:18.509Z,11.03
2022-11-05T22:46:46.403Z,10.67
2022-11-05T22:49:15.476Z,12.23
2022-11-05T22:51:43.396Z,12.07
2022-11-05T22:54:11.484Z,12.50
2022-11-05T22:56:43.323Z,11.83
2022-11-05T22:59:13.948Z,12.07
2022-11-05T23:01:42.108Z,11.80
2022-11-05T23:04:10.313Z,18.00
2022-11-05T23:06:55.888Z,11.27
2022-11-05T23:09:43.437Z,14.20
2022-11-05T23:12:22.029Z,12.57
2022-11-05T23:14:50.120Z,12.40
2022-11-05T23:17:35.267Z,11.73
2022-11-05T23:20:20.559Z,10.43
2022-11-05T23:23:05.628Z,11.90
2022-11-05T23:25:33.508Z,10.80
2022-11-05T23:28:06.340Z,9.90
2022-11-05T23:30:34.239Z,9.93
2022-11-05T23:33:01.143Z,12.27
2022-11-05T23:35:46.697Z,17.13
2022-11-05T23:38:31.892Z,10.80
2022-11-05T23:41:19.007Z,17.70
2022-11-05T23:44:06.122Z,10.20
2022-11-05T23:46:51.903Z,9.83
2022-11-05T23:49:20.027Z,10.10
2022-11-05T23:51:47.985Z,12.83
2022-11-05T23:54:15.876Z,10.67
2022-11-05T23:56:43.800Z,11.40
2022-11-05T23:59:13.100Z,12.70
